sensor_id;sensor_type;location;lat;lon;timestamp;temperature;humidity
7648;DHT22;3866;48.020;11.720;2023-08-24T00:00:22;20.90;99.90
7648;DHT22;3866;48.020;11.720;2023-08-24T00:02:48;21.00;99.90
7648;DHT22;3866;48.020;11.720;2023-08-24T00:05:15;21.10;99.90
7648;DHT22;3866;48.020;11.720;2023-08-24T00:07:42;21.10;99.90
7648;DHT22;3866;48.020;11.720;2023-08-24T00:10:09;21.20;99.90
7648;DHT22;3866;48.020;11.720;2023-08-24T00:12:36;21.10;99.90
7648;DHT22;3866;48.020;11.720;2023-08-24T00:15:08;21.10;99.90
7648;DHT22;3866;48.020;11.720;2023-08-24T00:17:36;21.10;99.90
7648;DHT22;3866;48.020;11.720;2023-08-24T00:20:04;21.00;99.90
7648;DHT22;3866;48.020;11.720;2023-08-24T00:22:36;20.90;99.90
7648;DHT22;3866;48.020;11.720;2023-08-24T00:25:04;20.70;99.90
7648;DHT22;3866;48.020;11.720;2023-08-24T00:27:31;20.70;99.90
7648;DHT22;3866;48.020;11.720;2023-08-24T00:29:58;20.70;99.90
7648;DHT22;3866;48.020;11.720;2023-08-24T00:32:27;20.60;99.90
7648;DHT22;3866;48.020;11.720;2023-08-24T00:34:55;20.50;99.90
7648;DHT22;3866;48.020;11.720;2023-08-24T00:37:22;20.50;99.90
7648;DHT22;3866;48.020;11.720;2023-08-24T00:39:49;20.40;99.90
7648;DHT22;3866;48.020;11.720;2023-08-24T00:42:16;20.40;99.90
7648;DHT22;3866;48.020;11.720;2023-08-24T00:44:42;20.40;99.90
7648;DHT22;3866;48.020;11.720;2023-08-24T00:47:10;20.40;99.90
7648;DHT22;3866;48.020;11.720;2023-08-24T00:49:38;20.40;99.90
7648;DHT22;3866;48.020;11.720;2023-08-24T00:52:05;20.40;99.90
7648;DHT22;3866;48.020;11.720;2023-08-24T00:54:33;20.40;99.90
7648;DHT22;3866;48.020;11.720;2023-08-24T00:57:00;20.50;99.90
7648;DHT22;3866;48.020;11.720;2023-08-24T00:59:27;20.50;99.90
7648;DHT22;3866;48.020;11.720;2023-08-24T01:01:53;20.50;99.90
7648;DHT22;3866;48.020;11.720;2023-08-24T01:04:22;20.60;99.90
7648;DHT22;3866;48.020;11.720;2023-08-24T01:06:50;20.60;99.90
7648;DHT22;3866;48.020;11.720;2023-08-24T01:09:18;20.60;99.90
7648;DHT22;3866;48.020;11.720;2023-08-24T01:11:52;20.60;99.90
7648;DHT22;3866;48.020;11.720;2023-08-24T01:14:32;20.60;99.90
7648;DHT22;3866;48.020;11.720;2023-08-24T01:17:03;20.50;99.90
7648;DHT22;3866;48.020;11.720;2023-08-24T01:19:37;20.50;99.90
7648;DHT22;3866;48.020;11.720;2023-08-24T01:22:11;20.50;99.90
7648;DHT22;3866;48.020;11.720;2023-08-24T01:24:47;20.40;99.90
7648;DHT22;3866;48.020;11.720;2023-08-24T01:27:16;20.40;99.90
7648;DHT22;3866;48.020;11.720;2023-08-24T01:29:43;20.30;99.90
7648;DHT22;3866;48.020;11.720;2023-08-24T01:32:10;20.30;99.90
7648;DHT22;3866;48.020;11.720;2023-08-24T01:34:37;20.30;99.90
7648;DHT22;3866;48.020;11.720;2023-08-24T01:37:05;20.20;99.90
7648;DHT22;3866;48.020;11.720;2023-08-24T01:39:39;20.20;99.90
7648;DHT22;3866;48.020;11.720;2023-08-24T01:42:11;20.20;99.90
7648;DHT22;3866;48.020;11.720;2023-08-24T01:44:42;20.20;99.90
7648;DHT22;3866;48.020;11.720;2023-08-24T01:47:13;20.20;99.90
7648;DHT22;3866;48.020;11.720;2023-08-24T01:49:40;20.20;99.90
7648;DHT22;3866;48.020;11.720;2023-08-24T01:52:08;20.30;99.90
7648;DHT22;3866;48.020;11.720;2023-08-24T01:54:38;20.30;99.90
7648;DHT22;3866;48.020;11.720;2023-08-24T01:57:05;20.30;99.90
7648;DHT22;3866;48.020;11.720;2023-08-24T01:59:32;20.20;99.90
7648;DHT22;3866;48.020;11.720;2023-08-24T02:02:00;20.20;99.90
7648;DHT22;3866;48.020;11.720;2023-08-24T02:04:28;20.20;99.90
7648;DHT22;3866;48.020;11.720;2023-08-24T02:06:55;20.20;99.90
7648;DHT22;3866;48.020;11.720;2023-08-24T02:09:22;20.10;99.90
7648;DHT22;3866;48.020;11.720;2023-08-24T02:11:49;20.10;99.90
7648;DHT22;3866;48.020;11.720;2023-08-24T02:14:15;20.10;99.90
7648;DHT22;3866;48.020;11.720;2023-08-24T02:16:42;20.00;99.90
7648;DHT22;3866;48.020;11.720;2023-08-24T02:19:11;19.90;99.90
7648;DHT22;3866;48.020;11.720;2023-08-24T02:21:37;19.80;99.90
7648;DHT22;3866;48.020;11.720;2023-08-24T02:24:05;19.90;99.90
7648;DHT22;3866;48.020;11.720;2023-08-24T02:26:32;19.80;99.90
7648;DHT22;3866;48.020;11.720;2023-08-24T02:28:59;19.80;99.90
7648;DHT22;3866;48.020;11.720;2023-08-24T02:31:26;19.80;99.90
7648;DHT22;3866;48.020;11.720;2023-08-24T02:33:53;19.80;99.90
7648;DHT22;3866;48.020;11.720;2023-08-24T02:36:21;19.80;99.90
7648;DHT22;3866;48.020;11.720;2023-08-24T02:38:48;19.80;99.90
7648;DHT22;3866;48.020;11.720;2023-08-24T02:41:15;19.80;99.90
7648;DHT22;3866;48.020;11.720;2023-08-24T02:43:41;19.80;99.90
7648;DHT22;3866;48.020;11.720;2023-08-24T02:46:09;19.70;99.90
7648;DHT22;3866;48.020;11.720;2023-08-24T02:48:36;19.90;99.90
7648;DHT22;3866;48.020;11.720;2023-08-24T02:51:04;19.80;99.90
7648;DHT22;3866;48.020;11.720;2023-08-24T02:53:33;19.70;99.90
7648;DHT22;3866;48.020;11.720;2023-08-24T02:56:00;19.60;99.90
7648;DHT22;3866;48.020;11.720;2023-08-24T02:58:26;19.60;99.90
7648;DHT22;3866;48.020;11.720;2023-08-24T03:00:54;19.60;99.90
7648;DHT22;3866;48.020;11.720;2023-08-24T03:03:21;19.50;99.90
7648;DHT22;3866;48.020;11.720;2023-08-24T03:05:54;19.50;99.90
7648;DHT22;3866;48.020;11.720;2023-08-24T03:08:21;19.40;99.90
7648;DHT22;3866;48.020;11.720;2023-08-24T03:10:50;19.40;99.90
7648;DHT22;3866;48.020;11.720;2023-08-24T03:13:17;19.30;99.90
7648;DHT22;3866;48.020;11.720;2023-08-24T03:15:45;19.30;99.90
7648;DHT22;3866;48.020;11.720;2023-08-24T03:18:12;19.20;99.90
7648;DHT22;3866;48.020;11.720;2023-08-24T03:20:39;19.10;99.90
7648;DHT22;3866;48.020;11.720;2023-08-24T03:23:07;19.00;99.90
7648;DHT22;3866;48.020;11.720;2023-08-24T03:25:36;18.90;99.90
7648;DHT22;3866;48.020;11.720;2023-08-24T03:28:06;18.90;99.90
7648;DHT22;3866;48.020;11.720;2023-08-24T03:30:34;18.90;99.90
7648;DHT22;3866;48.020;11.720;2023-08-24T03:33:01;18.90;99.90
7648;DHT22;3866;48.020;11.720;2023-08-24T03:35:29;18.90;99.90
7648;DHT22;3866;48.020;11.720;2023-08-24T03:37:56;18.90;99.90
7648;DHT22;3866;48.020;11.720;2023-08-24T03:40:23;18.80;99.90
7648;DHT22;3866;48.020;11.720;2023-08-24T03:42:50;18.80;99.90
7648;DHT22;3866;48.020;11.720;2023-08-24T03:45:19;18.80;99.90
7648;DHT22;3866;48.020;11.720;2023-08-24T03:47:46;18.80;99.90
7648;DHT22;3866;48.020;11.720;2023-08-24T03:50:13;18.80;99.90
7648;DHT22;3866;48.020;11.720;2023-08-24T03:52:41;18.80;99.90
7648;DHT22;3866;48.020;11.720;2023-08-24T03:55:08;18.90;99.90
7648;DHT22;3866;48.020;11.720;2023-08-24T03:57:35;18.90;99.90
7648;DHT22;3866;48.020;11.720;2023-08-24T04:00:04;18.90;99.90
7648;DHT22;3866;48.020;11.720;2023-08-24T04:02:34;18.90;99.90
7648;DHT22;3866;48.020;11.720;2023-08-24T04:05:01;18.80;99.90
7648;DHT22;3866;48.020;11.720;2023-08-24T04:07:28;18.80;99.90
7648;DHT22;3866;48.020;11.720;2023-08-24T04:09:57;18.90;99.90
7648;DHT22;3866;48.020;11.720;2023-08-24T04:12:23;18.90;99.90
7648;DHT22;3866;48.020;11.720;2023-08-24T04:14:50;18.90;99.90
7648;DHT22;3866;48.020;11.720;2023-08-24T04:17:18;18.90;99.90
7648;DHT22;3866;48.020;11.720;2023-08-24T04:19:46;18.90;99.90
7648;DHT22;3866;48.020;11.720;2023-08-24T04:22:13;18.80;99.90
7648;DHT22;3866;48.020;11.720;2023-08-24T04:24:40;18.90;99.90
7648;DHT22;3866;48.020;11.720;2023-08-24T04:27:07;18.80;99.90
7648;DHT22;3866;48.020;11.720;2023-08-24T04:29:34;18.90;99.90
7648;DHT22;3866;48.020;11.720;2023-08-24T04:32:01;18.90;99.90
7648;DHT22;3866;48.020;11.720;2023-08-24T04:34:28;18.90;99.90
7648;DHT22;3866;48.020;11.720;2023-08-24T04:36:56;18.90;99.90
7648;DHT22;3866;48.020;11.720;2023-08-24T04:39:23;19.00;99.90
7648;DHT22;3866;48.020;11.720;2023-08-24T04:41:50;19.00;99.90
7648;DHT22;3866;48.020;11.720;2023-08-24T04:44:17;19.00;99.90
7648;DHT22;3866;48.020;11.720;2023-08-24T04:46:44;19.00;99.90
7648;DHT22;3866;48.020;11.720;2023-08-24T04:49:11;19.00;99.90
7648;DHT22;3866;48.020;11.720;2023-08-24T04:51:38;19.10;99.90
7648;DHT22;3866;48.020;11.720;2023-08-24T04:54:06;19.10;99.90
7648;DHT22;3866;48.020;11.720;2023-08-24T04:56:33;19.10;99.90
7648;DHT22;3866;48.020;11.720;2023-08-24T04:59:00;19.20;99.90
7648;DHT22;3866;48.020;11.720;2023-08-24T05:01:29;19.20;99.90
7648;DHT22;3866;48.020;11.720;2023-08-24T05:03:57;19.30;99.90
7648;DHT22;3866;48.020;11.720;2023-08-24T05:06:24;19.40;99.90
7648;DHT22;3866;48.020;11.720;2023-08-24T05:08:51;19.40;99.90
7648;DHT22;3866;48.020;11.720;2023-08-24T05:11:20;19.50;99.90
7648;DHT22;3866;48.020;11.720;2023-08-24T05:13:47;19.40;99.90
7648;DHT22;3866;48.020;11.720;2023-08-24T05:16:14;19.50;99.90
7648;DHT22;3866;48.020;11.720;2023-08-24T05:18:41;19.60;99.90
7648;DHT22;3866;48.020;11.720;2023-08-24T05:21:07;19.60;99.90
7648;DHT22;3866;48.020;11.720;2023-08-24T05:23:35;19.60;99.90
7648;DHT22;3866;48.020;11.720;2023-08-24T05:26:02;19.60;99.90
7648;DHT22;3866;48.020;11.720;2023-08-24T05:28:31;19.60;99.90
7648;DHT22;3866;48.020;11.720;2023-08-24T05:30:58;19.70;99.90
7648;DHT22;3866;48.020;11.720;2023-08-24T05:33:26;20.00;99.90
7648;DHT22;3866;48.020;11.720;2023-08-24T05:35:56;20.00;99.90
7648;DHT22;3866;48.020;11.720;2023-08-24T05:38:24;20.20;99.90
7648;DHT22;3866;48.020;11.720;2023-08-24T05:40:51;20.20;99.90
7648;DHT22;3866;48.020;11.720;2023-08-24T05:43:18;20.30;99.90
7648;DHT22;3866;48.020;11.720;2023-08-24T05:45:48;20.30;99.90
7648;DHT22;3866;48.020;11.720;2023-08-24T05:48:15;20.40;99.90
7648;DHT22;3866;48.020;11.720;2023-08-24T05:50:45;20.40;99.90
7648;DHT22;3866;48.020;11.720;2023-08-24T05:53:13;20.20;99.90
7648;DHT22;3866;48.020;11.720;2023-08-24T05:55:40;20.50;99.90
7648;DHT22;3866;48.020;11.720;2023-08-24T05:58:07;20.80;99.90
7648;DHT22;3866;48.020;11.720;2023-08-24T06:00:34;21.10;99.90
7648;DHT22;3866;48.020;11.720;2023-08-24T06:03:03;21.30;99.90
7648;DHT22;3866;48.020;11.720;2023-08-24T06:05:30;21.40;99.90
7648;DHT22;3866;48.020;11.720;2023-08-24T06:07:57;21.50;99.90
7648;DHT22;3866;48.020;11.720;2023-08-24T06:10:24;21.70;99.90
7648;DHT22;3866;48.020;11.720;2023-08-24T06:12:52;21.80;99.90
7648;DHT22;3866;48.020;11.720;2023-08-24T06:15:19;22.00;99.90
7648;DHT22;3866;48.020;11.720;2023-08-24T06:17:49;22.00;99.90
7648;DHT22;3866;48.020;11.720;2023-08-24T06:20:18;22.30;99.90
7648;DHT22;3866;48.020;11.720;2023-08-24T06:22:45;22.50;99.90
7648;DHT22;3866;48.020;11.720;2023-08-24T06:25:12;22.60;99.90
7648;DHT22;3866;48.020;11.720;2023-08-24T06:27:40;22.60;99.90
7648;DHT22;3866;48.020;11.720;2023-08-24T06:30:07;22.60;99.90
7648;DHT22;3866;48.020;11.720;2023-08-24T06:32:34;22.80;99.90
7648;DHT22;3866;48.020;11.720;2023-08-24T06:35:02;23.10;99.90
7648;DHT22;3866;48.020;11.720;2023-08-24T06:37:31;23.70;99.90
7648;DHT22;3866;48.020;11.720;2023-08-24T06:39:58;24.70;99.90
7648;DHT22;3866;48.020;11.720;2023-08-24T06:42:25;25.60;99.90
7648;DHT22;3866;48.020;11.720;2023-08-24T06:44:52;26.70;99.90
7648;DHT22;3866;48.020;11.720;2023-08-24T06:47:19;26.90;99.90
7648;DHT22;3866;48.020;11.720;2023-08-24T06:49:46;27.50;99.90
7648;DHT22;3866;48.020;11.720;2023-08-24T06:52:12;28.00;99.90
7648;DHT22;3866;48.020;11.720;2023-08-24T06:54:41;28.00;99.90
7648;DHT22;3866;48.020;11.720;2023-08-24T06:57:07;28.60;99.90
7648;DHT22;3866;48.020;11.720;2023-08-24T06:59:35;29.10;99.90
7648;DHT22;3866;48.020;11.720;2023-08-24T07:02:02;29.20;99.90
7648;DHT22;3866;48.020;11.720;2023-08-24T07:04:29;29.10;99.90
7648;DHT22;3866;48.020;11.720;2023-08-24T07:06:57;29.30;99.90
7648;DHT22;3866;48.020;11.720;2023-08-24T07:09:23;29.20;99.90
7648;DHT22;3866;48.020;11.720;2023-08-24T07:11:52;29.60;99.90
7648;DHT22;3866;48.020;11.720;2023-08-24T07:14:18;29.70;99.90
7648;DHT22;3866;48.020;11.720;2023-08-24T07:16:45;29.40;99.90
7648;DHT22;3866;48.020;11.720;2023-08-24T07:19:12;29.40;99.90
7648;DHT22;3866;48.020;11.720;2023-08-24T07:21:39;29.80;99.90
7648;DHT22;3866;48.020;11.720;2023-08-24T07:24:06;29.60;99.90
7648;DHT22;3866;48.020;11.720;2023-08-24T07:26:33;30.60;99.90
7648;DHT22;3866;48.020;11.720;2023-08-24T07:29:01;31.30;99.90
7648;DHT22;3866;48.020;11.720;2023-08-24T07:31:28;31.00;99.90
7648;DHT22;3866;48.020;11.720;2023-08-24T07:33:55;31.30;99.90
7648;DHT22;3866;48.020;11.720;2023-08-24T07:36:22;30.30;99.90
7648;DHT22;3866;48.020;11.720;2023-08-24T07:38:49;30.40;99.90
7648;DHT22;3866;48.020;11.720;2023-08-24T07:41:16;30.20;99.90
7648;DHT22;3866;48.020;11.720;2023-08-24T07:43:44;30.90;99.90
7648;DHT22;3866;48.020;11.720;2023-08-24T07:46:12;31.60;99.90
7648;DHT22;3866;48.020;11.720;2023-08-24T07:48:39;32.20;99.90
7648;DHT22;3866;48.020;11.720;2023-08-24T07:51:07;32.40;99.90
7648;DHT22;3866;48.020;11.720;2023-08-24T07:53:34;33.00;99.90
7648;DHT22;3866;48.020;11.720;2023-08-24T07:56:01;32.10;99.90
7648;DHT22;3866;48.020;11.720;2023-08-24T07:58:28;32.00;99.90
7648;DHT22;3866;48.020;11.720;2023-08-24T08:00:57;32.40;99.90
7648;DHT22;3866;48.020;11.720;2023-08-24T08:03:28;32.90;99.90
7648;DHT22;3866;48.020;11.720;2023-08-24T08:05:56;33.10;99.90
7648;DHT22;3866;48.020;11.720;2023-08-24T08:08:24;32.80;99.90
7648;DHT22;3866;48.020;11.720;2023-08-24T08:10:58;33.20;99.90
7648;DHT22;3866;48.020;11.720;2023-08-24T08:13:25;33.30;99.90
7648;DHT22;3866;48.020;11.720;2023-08-24T08:15:53;32.40;99.90
7648;DHT22;3866;48.020;11.720;2023-08-24T08:18:20;32.60;99.90
7648;DHT22;3866;48.020;11.720;2023-08-24T08:20:51;32.80;99.90
7648;DHT22;3866;48.020;11.720;2023-08-24T08:23:19;32.90;99.90
7648;DHT22;3866;48.020;11.720;2023-08-24T08:25:45;32.70;99.90
7648;DHT22;3866;48.020;11.720;2023-08-24T08:28:12;32.70;99.90
7648;DHT22;3866;48.020;11.720;2023-08-24T08:30:39;33.30;99.90
7648;DHT22;3866;48.020;11.720;2023-08-24T08:33:06;33.50;99.90
7648;DHT22;3866;48.020;11.720;2023-08-24T08:35:33;33.30;99.90
7648;DHT22;3866;48.020;11.720;2023-08-24T08:38:02;32.80;99.90
7648;DHT22;3866;48.020;11.720;2023-08-24T08:40:30;32.50;99.90
7648;DHT22;3866;48.020;11.720;2023-08-24T08:42:57;32.10;99.90
7648;DHT22;3866;48.020;11.720;2023-08-24T08:45:25;31.10;99.90
7648;DHT22;3866;48.020;11.720;2023-08-24T08:47:55;30.50;99.90
7648;DHT22;3866;48.020;11.720;2023-08-24T08:50:22;30.70;99.90
7648;DHT22;3866;48.020;11.720;2023-08-24T08:52:50;30.80;99.90
7648;DHT22;3866;48.020;11.720;2023-08-24T08:55:19;30.70;99.90
7648;DHT22;3866;48.020;11.720;2023-08-24T08:57:48;30.10;99.90
7648;DHT22;3866;48.020;11.720;2023-08-24T09:00:16;29.90;99.90
7648;DHT22;3866;48.020;11.720;2023-08-24T09:02:44;29.70;99.90
7648;DHT22;3866;48.020;11.720;2023-08-24T09:05:11;30.10;99.90
7648;DHT22;3866;48.020;11.720;2023-08-24T09:07:39;30.10;99.90
7648;DHT22;3866;48.020;11.720;2023-08-24T09:10:07;29.80;99.90
7648;DHT22;3866;48.020;11.720;2023-08-24T09:12:36;29.70;99.90
7648;DHT22;3866;48.020;11.720;2023-08-24T09:15:04;29.80;99.90
7648;DHT22;3866;48.020;11.720;2023-08-24T09:17:32;29.90;99.90
7648;DHT22;3866;48.020;11.720;2023-08-24T09:20:01;29.60;99.90
7648;DHT22;3866;48.020;11.720;2023-08-24T09:22:35;29.80;99.90
7648;DHT22;3866;48.020;11.720;2023-08-24T09:25:02;29.80;99.90
7648;DHT22;3866;48.020;11.720;2023-08-24T09:27:32;29.70;99.90
7648;DHT22;3866;48.020;11.720;2023-08-24T09:30:00;29.80;99.90
7648;DHT22;3866;48.020;11.720;2023-08-24T09:32:29;29.70;99.90
7648;DHT22;3866;48.020;11.720;2023-08-24T09:35:02;29.30;99.90
7648;DHT22;3866;48.020;11.720;2023-08-24T09:37:31;29.70;99.90
7648;DHT22;3866;48.020;11.720;2023-08-24T09:40:01;29.70;99.90
7648;DHT22;3866;48.020;11.720;2023-08-24T09:42:37;29.90;99.90
7648;DHT22;3866;48.020;11.720;2023-08-24T09:45:11;29.30;99.90
7648;DHT22;3866;48.020;11.720;2023-08-24T09:47:38;29.00;99.90
7648;DHT22;3866;48.020;11.720;2023-08-24T09:50:06;29.20;99.90
7648;DHT22;3866;48.020;11.720;2023-08-24T09:52:34;29.40;99.90
7648;DHT22;3866;48.020;11.720;2023-08-24T09:55:03;29.40;99.90
7648;DHT22;3866;48.020;11.720;2023-08-24T09:57:38;29.50;99.90
7648;DHT22;3866;48.020;11.720;2023-08-24T10:00:08;29.60;99.90
7648;DHT22;3866;48.020;11.720;2023-08-24T10:02:45;29.60;99.90
7648;DHT22;3866;48.020;11.720;2023-08-24T10:05:15;29.60;99.90
7648;DHT22;3866;48.020;11.720;2023-08-24T10:07:48;29.80;99.90
7648;DHT22;3866;48.020;11.720;2023-08-24T10:10:18;29.60;99.90
7648;DHT22;3866;48.020;11.720;2023-08-24T10:12:50;29.30;99.90
7648;DHT22;3866;48.020;11.720;2023-08-24T10:15:19;29.20;99.90
7648;DHT22;3866;48.020;11.720;2023-08-24T10:17:48;29.50;99.90
7648;DHT22;3866;48.020;11.720;2023-08-24T10:20:18;29.90;99.90
7648;DHT22;3866;48.020;11.720;2023-08-24T10:22:46;30.30;99.90
7648;DHT22;3866;48.020;11.720;2023-08-24T10:25:16;30.40;99.90
7648;DHT22;3866;48.020;11.720;2023-08-24T10:27:45;30.20;99.90
7648;DHT22;3866;48.020;11.720;2023-08-24T10:30:14;30.20;99.90
7648;DHT22;3866;48.020;11.720;2023-08-24T10:32:43;30.30;99.90
7648;DHT22;3866;48.020;11.720;2023-08-24T10:35:13;30.70;99.90
7648;DHT22;3866;48.020;11.720;2023-08-24T10:37:44;30.90;99.90
7648;DHT22;3866;48.020;11.720;2023-08-24T10:40:13;30.90;99.90
7648;DHT22;3866;48.020;11.720;2023-08-24T10:42:46;31.00;99.90
7648;DHT22;3866;48.020;11.720;2023-08-24T10:45:14;30.70;99.90
7648;DHT22;3866;48.020;11.720;2023-08-24T10:47:46;30.60;99.90
7648;DHT22;3866;48.020;11.720;2023-08-24T10:50:13;30.60;99.90
7648;DHT22;3866;48.020;11.720;2023-08-24T10:52:43;30.70;99.90
7648;DHT22;3866;48.020;11.720;2023-08-24T10:55:26;30.50;99.90
7648;DHT22;3866;48.020;11.720;2023-08-24T10:57:56;30.40;99.90
7648;DHT22;3866;48.020;11.720;2023-08-24T11:00:26;30.50;99.90
7648;DHT22;3866;48.020;11.720;2023-08-24T11:02:56;30.60;99.90
7648;DHT22;3866;48.020;11.720;2023-08-24T11:05:24;30.70;99.90
7648;DHT22;3866;48.020;11.720;2023-08-24T11:07:54;30.70;99.90
7648;DHT22;3866;48.020;11.720;2023-08-24T11:10:23;30.50;99.90
7648;DHT22;3866;48.020;11.720;2023-08-24T11:13:10;30.30;99.90
7648;DHT22;3866;48.020;11.720;2023-08-24T11:15:39;30.40;99.90
7648;DHT22;3866;48.020;11.720;2023-08-24T11:18:20;30.40;99.90
7648;DHT22;3866;48.020;11.720;2023-08-24T11:20:50;30.40;99.90
7648;DHT22;3866;48.020;11.720;2023-08-24T11:23:18;30.20;99.90
7648;DHT22;3866;48.020;11.720;2023-08-24T11:25:45;30.20;99.90
7648;DHT22;3866;48.020;11.720;2023-08-24T11:28:17;30.30;99.90
7648;DHT22;3866;48.020;11.720;2023-08-24T11:30:45;30.50;99.90
7648;DHT22;3866;48.020;11.720;2023-08-24T11:33:13;30.70;99.90
7648;DHT22;3866;48.020;11.720;2023-08-24T11:35:43;30.60;99.90
7648;DHT22;3866;48.020;11.720;2023-08-24T11:38:11;30.90;99.90
7648;DHT22;3866;48.020;11.720;2023-08-24T11:40:38;30.70;99.90
7648;DHT22;3866;48.020;11.720;2023-08-24T11:43:05;30.80;99.90
7648;DHT22;3866;48.020;11.720;2023-08-24T11:45:33;30.90;99.90
7648;DHT22;3866;48.020;11.720;2023-08-24T11:48:00;31.00;99.90
7648;DHT22;3866;48.020;11.720;2023-08-24T11:50:28;31.10;99.90
7648;DHT22;3866;48.020;11.720;2023-08-24T11:52:57;31.40;99.90
7648;DHT22;3866;48.020;11.720;2023-08-24T11:55:25;31.20;99.90
7648;DHT22;3866;48.020;11.720;2023-08-24T11:57:53;31.40;99.90
7648;DHT22;3866;48.020;11.720;2023-08-24T12:00:21;32.00;99.90
7648;DHT22;3866;48.020;11.720;2023-08-24T12:02:49;32.00;99.90
7648;DHT22;3866;48.020;11.720;2023-08-24T12:05:20;31.90;99.90
7648;DHT22;3866;48.020;11.720;2023-08-24T12:07:48;32.00;99.90
7648;DHT22;3866;48.020;11.720;2023-08-24T12:10:17;32.60;99.90
7648;DHT22;3866;48.020;11.720;2023-08-24T12:12:44;33.10;99.90
7648;DHT22;3866;48.020;11.720;2023-08-24T12:15:16;32.90;99.90
7648;DHT22;3866;48.020;11.720;2023-08-24T12:17:43;33.00;99.90
7648;DHT22;3866;48.020;11.720;2023-08-24T12:20:18;33.40;99.90
7648;DHT22;3866;48.020;11.720;2023-08-24T12:22:53;33.30;99.90
7648;DHT22;3866;48.020;11.720;2023-08-24T12:25:25;33.30;99.90
7648;DHT22;3866;48.020;11.720;2023-08-24T12:27:52;33.10;99.90
7648;DHT22;3866;48.020;11.720;2023-08-24T12:30:19;33.50;99.90
7648;DHT22;3866;48.020;11.720;2023-08-24T12:32:49;33.50;99.90
7648;DHT22;3866;48.020;11.720;2023-08-24T12:35:17;34.00;99.90
7648;DHT22;3866;48.020;11.720;2023-08-24T12:37:44;33.90;99.90
7648;DHT22;3866;48.020;11.720;2023-08-24T12:40:12;33.80;99.90
7648;DHT22;3866;48.020;11.720;2023-08-24T12:42:40;34.00;99.90
7648;DHT22;3866;48.020;11.720;2023-08-24T12:45:08;34.20;99.90
7648;DHT22;3866;48.020;11.720;2023-08-24T12:47:35;34.40;99.90
7648;DHT22;3866;48.020;11.720;2023-08-24T12:50:05;34.60;99.90
7648;DHT22;3866;48.020;11.720;2023-08-24T12:52:33;34.20;99.90
7648;DHT22;3866;48.020;11.720;2023-08-24T12:55:00;34.10;99.90
7648;DHT22;3866;48.020;11.720;2023-08-24T12:57:28;34.40;99.90
7648;DHT22;3866;48.020;11.720;2023-08-24T12:59:57;34.60;99.90
7648;DHT22;3866;48.020;11.720;2023-08-24T13:02:24;34.50;99.90
7648;DHT22;3866;48.020;11.720;2023-08-24T13:04:50;34.20;99.90
7648;DHT22;3866;48.020;11.720;2023-08-24T13:07:17;33.70;99.90
7648;DHT22;3866;48.020;11.720;2023-08-24T13:09:44;33.50;99.90
7648;DHT22;3866;48.020;11.720;2023-08-24T13:12:11;33.90;99.90
7648;DHT22;3866;48.020;11.720;2023-08-24T13:14:38;34.00;99.90
7648;DHT22;3866;48.020;11.720;2023-08-24T13:17:06;34.40;99.90
7648;DHT22;3866;48.020;11.720;2023-08-24T13:19:33;34.20;99.90
7648;DHT22;3866;48.020;11.720;2023-08-24T13:22:00;34.40;99.90
7648;DHT22;3866;48.020;11.720;2023-08-24T13:24:27;33.90;99.90
7648;DHT22;3866;48.020;11.720;2023-08-24T13:26:54;33.00;99.90
7648;DHT22;3866;48.020;11.720;2023-08-24T13:29:21;33.00;99.90
7648;DHT22;3866;48.020;11.720;2023-08-24T13:31:47;33.20;99.90
7648;DHT22;3866;48.020;11.720;2023-08-24T13:34:16;33.40;99.90
7648;DHT22;3866;48.020;11.720;2023-08-24T13:36:43;33.70;99.90
7648;DHT22;3866;48.020;11.720;2023-08-24T13:39:10;33.20;99.90
7648;DHT22;3866;48.020;11.720;2023-08-24T13:41:37;33.30;99.90
7648;DHT22;3866;48.020;11.720;2023-08-24T13:44:04;33.40;99.90
7648;DHT22;3866;48.020;11.720;2023-08-24T13:46:31;33.40;99.90
7648;DHT22;3866;48.020;11.720;2023-08-24T13:48:58;33.60;99.90
7648;DHT22;3866;48.020;11.720;2023-08-24T13:51:26;33.40;99.90
7648;DHT22;3866;48.020;11.720;2023-08-24T13:53:53;33.30;99.90
7648;DHT22;3866;48.020;11.720;2023-08-24T13:56:20;33.40;99.90
7648;DHT22;3866;48.020;11.720;2023-08-24T13:58:47;33.00;99.90
7648;DHT22;3866;48.020;11.720;2023-08-24T14:01:14;33.10;99.90
7648;DHT22;3866;48.020;11.720;2023-08-24T14:03:41;33.30;99.90
7648;DHT22;3866;48.020;11.720;2023-08-24T14:06:09;33.50;99.90
7648;DHT22;3866;48.020;11.720;2023-08-24T14:08:37;33.50;99.90
7648;DHT22;3866;48.020;11.720;2023-08-24T14:11:04;33.40;99.90
7648;DHT22;3866;48.020;11.720;2023-08-24T14:13:31;33.40;99.90
7648;DHT22;3866;48.020;11.720;2023-08-24T14:15:58;33.20;99.90
7648;DHT22;3866;48.020;11.720;2023-08-24T14:18:25;33.40;99.90
7648;DHT22;3866;48.020;11.720;2023-08-24T14:20:52;33.40;99.90
7648;DHT22;3866;48.020;11.720;2023-08-24T14:23:19;33.50;99.90
7648;DHT22;3866;48.020;11.720;2023-08-24T14:25:48;33.40;99.90
7648;DHT22;3866;48.020;11.720;2023-08-24T14:28:21;33.40;99.90
7648;DHT22;3866;48.020;11.720;2023-08-24T14:30:48;33.40;99.90
7648;DHT22;3866;48.020;11.720;2023-08-24T14:33:15;33.50;99.90
7648;DHT22;3866;48.020;11.720;2023-08-24T14:35:50;33.40;99.90
7648;DHT22;3866;48.020;11.720;2023-08-24T14:38:17;33.30;99.90
7648;DHT22;3866;48.020;11.720;2023-08-24T14:40:44;33.00;99.90
7648;DHT22;3866;48.020;11.720;2023-08-24T14:43:12;33.00;99.90
7648;DHT22;3866;48.020;11.720;2023-08-24T14:45:39;33.00;99.90
7648;DHT22;3866;48.020;11.720;2023-08-24T14:48:06;32.90;99.90
7648;DHT22;3866;48.020;11.720;2023-08-24T14:50:33;32.90;99.90
7648;DHT22;3866;48.020;11.720;2023-08-24T14:53:00;33.00;99.90
7648;DHT22;3866;48.020;11.720;2023-08-24T14:55:27;33.20;99.90
7648;DHT22;3866;48.020;11.720;2023-08-24T14:57:54;33.10;99.90
7648;DHT22;3866;48.020;11.720;2023-08-24T15:00:24;33.30;99.90
7648;DHT22;3866;48.020;11.720;2023-08-24T15:02:51;33.00;99.90
7648;DHT22;3866;48.020;11.720;2023-08-24T15:05:18;33.00;99.90
7648;DHT22;3866;48.020;11.720;2023-08-24T15:07:45;33.00;99.90
7648;DHT22;3866;48.020;11.720;2023-08-24T15:10:12;32.90;99.90
7648;DHT22;3866;48.020;11.720;2023-08-24T15:12:39;32.90;99.90
7648;DHT22;3866;48.020;11.720;2023-08-24T15:15:06;32.70;99.90
7648;DHT22;3866;48.020;11.720;2023-08-24T15:17:36;32.70;99.90
7648;DHT22;3866;48.020;11.720;2023-08-24T15:20:05;32.60;99.90
7648;DHT22;3866;48.020;11.720;2023-08-24T15:22:32;32.60;99.90
7648;DHT22;3866;48.020;11.720;2023-08-24T15:24:59;32.60;99.90
7648;DHT22;3866;48.020;11.720;2023-08-24T15:27:28;32.40;99.90
7648;DHT22;3866;48.020;11.720;2023-08-24T15:29:55;32.70;99.90
7648;DHT22;3866;48.020;11.720;2023-08-24T15:32:22;32.70;99.90
7648;DHT22;3866;48.020;11.720;2023-08-24T15:34:50;32.60;99.90
7648;DHT22;3866;48.020;11.720;2023-08-24T15:37:19;32.50;99.90
7648;DHT22;3866;48.020;11.720;2023-08-24T15:39:46;32.40;99.90
7648;DHT22;3866;48.020;11.720;2023-08-24T15:42:13;32.40;99.90
7648;DHT22;3866;48.020;11.720;2023-08-24T15:44:40;32.40;99.90
7648;DHT22;3866;48.020;11.720;2023-08-24T15:47:07;32.40;99.90
7648;DHT22;3866;48.020;11.720;2023-08-24T15:49:34;32.40;99.90